Time;durP1;ratioP1;P1;durP2;ratioP2;P2;SDS_P1;SDS_P2;PMS_P1;PMS_P2;Temp;Humidity;BMP_temperature;BMP_pressure;BME280_temperature;BME280_humidity;BME280_pressure;Samples;Min_cycle;Max_cycle;Signal;HPM_P1;HPM_P2
2022/05/14 00:01:14;;;;;;;7.67;6.87;;;;;;;17.25;100.00;96621.78;5038847;28;20211;-86
2022/05/14 00:03:43;;;;;;;7.87;6.83;;;;;;;17.30;100.00;96624.53;5023396;28;20206;-86
2022/05/14 00:06:13;;;;;;;10.27;7.90;;;;;;;17.23;100.00;96623.94;5024423;28;20221;-87
2022/05/14 00:08:41;;;;;;;9.90;8.40;;;;;;;17.12;100.00;96614.06;5037154;28;20296;-88
2022/05/14 00:13:54;;;;;;;8.90;8.00;;;;;;;17.05;100.00;96627.13;5024838;28;20494;-86
2022/05/14 00:16:23;;;;;;;8.60;7.47;;;;;;;17.02;100.00;96623.00;5040164;28;20198;-87
2022/05/14 00:18:52;;;;;;;9.47;7.90;;;;;;;17.03;100.00;96626.56;5037030;28;20238;-87
2022/05/14 00:21:21;;;;;;;10.77;8.43;;;;;;;17.01;100.00;96628.75;5036115;28;20233;-86
2022/05/14 00:23:48;;;;;;;10.23;8.50;;;;;;;16.99;100.00;96629.03;5033640;28;20325;-86
2022/05/14 00:26:15;;;;;;;9.87;8.27;;;;;;;17.00;100.00;96624.38;5038917;28;20198;-88
2022/05/14 00:28:43;;;;;;;12.43;7.87;;;;;;;17.04;100.00;96630.94;5040918;28;20210;-86
2022/05/14 00:31:10;;;;;;;8.27;7.37;;;;;;;17.05;100.00;96623.56;5023961;28;20213;-87
2022/05/14 00:33:38;;;;;;;9.10;7.67;;;;;;;17.07;100.00;96619.50;5038548;28;20293;-86
2022/05/14 00:36:07;;;;;;;9.87;7.70;;;;;;;17.07;100.00;96616.78;5031468;28;20210;-87
2022/05/14 00:38:34;;;;;;;9.67;7.50;;;;;;;17.07;100.00;96614.06;5038082;28;20217;-87
2022/05/14 00:41:04;;;;;;;10.60;7.67;;;;;;;17.05;100.00;96604.47;5033988;28;20217;-86
2022/05/14 00:43:34;;;;;;;11.07;7.33;;;;;;;17.05;100.00;96608.03;5032432;28;20293;-87
2022/05/14 00:46:12;;;;;;;8.27;7.27;;;;;;;17.06;100.00;96611.59;5022179;28;20206;-86
2022/05/14 00:48:42;;;;;;;11.30;7.13;;;;;;;16.98;100.00;96611.00;5030688;28;20229;-86
2022/05/14 00:51:14;;;;;;;10.57;7.50;;;;;;;16.90;100.00;96605.22;5019130;28;20361;-86
2022/05/14 00:53:47;;;;;;;11.27;7.43;;;;;;;16.92;100.00;96611.25;5033211;28;20206;-87
2022/05/14 00:56:17;;;;;;;8.63;7.17;;;;;;;16.93;100.00;96608.22;5023685;28;20218;-87
2022/05/14 00:58:50;;;;;;;10.00;7.83;;;;;;;16.97;100.00;96601.16;5019355;28;20234;-86
2022/05/14 01:01:18;;;;;;;10.40;7.23;;;;;;;16.94;100.00;96606.31;5020497;28;20204;-86
2022/05/14 01:03:45;;;;;;;8.83;7.43;;;;;;;16.96;100.00;96612.34;5024342;28;20202;-86
2022/05/14 01:06:19;;;;;;;10.03;7.10;;;;;;;16.94;100.00;96606.31;5022596;28;20260;-86
2022/05/14 01:08:47;;;;;;;7.63;6.37;;;;;;;16.87;100.00;96605.75;5023399;28;20206;-87
2022/05/14 01:11:16;;;;;;;7.07;6.37;;;;;;;16.90;100.00;96611.50;5033718;28;20199;-86
2022/05/14 01:13:45;;;;;;;9.00;7.43;;;;;;;16.97;100.00;96619.44;5022980;28;20210;-86
2022/05/14 01:16:13;;;;;;;10.40;7.57;;;;;;;16.95;100.00;96616.97;5030342;28;20202;-86
2022/05/14 01:18:40;;;;;;;13.67;7.73;;;;;;;16.89;100.00;96617.22;5022771;28;20206;-86
2022/05/14 01:21:19;;;;;;;11.57;8.07;;;;;;;16.91;100.00;96620.50;5041843;28;20222;-87
2022/05/14 01:26:40;;;;;;;10.50;7.73;;;;;;;16.79;100.00;96626.16;5024928;28;20202;-88
2022/05/14 01:29:16;;;;;;;8.60;7.57;;;;;;;16.81;100.00;96617.72;5036100;28;20218;-87
2022/05/14 01:31:44;;;;;;;12.90;7.90;;;;;;;16.82;100.00;96616.63;5020664;28;20215;-87
2022/05/14 01:34:16;;;;;;;9.20;7.27;;;;;;;16.81;100.00;96618.53;5037121;28;20269;-87
2022/05/14 01:36:44;;;;;;;8.57;7.20;;;;;;;16.75;100.00;96616.03;5022106;28;20214;-87
2022/05/14 01:39:13;;;;;;;11.17;7.13;;;;;;;16.77;100.00;96616.59;5035193;28;20256;-86
2022/05/14 01:41:41;;;;;;;8.37;6.70;;;;;;;16.81;100.00;96614.97;5014317;28;20210;-86
2022/05/14 01:44:09;;;;;;;10.40;7.33;;;;;;;16.85;100.00;96616.09;5042039;28;20206;-86
2022/05/14 01:46:36;;;;;;;8.93;6.73;;;;;;;16.84;100.00;96604.34;5034933;28;20260;-86
2022/05/14 01:49:05;;;;;;;8.67;6.63;;;;;;;16.82;100.00;96606.53;5021777;28;20198;-87
2022/05/14 01:51:34;;;;;;;7.57;6.03;;;;;;;16.79;100.00;96611.69;5021912;28;20202;-87
2022/05/14 01:54:02;;;;;;;8.40;6.97;;;;;;;16.81;100.00;96609.53;5024974;28;20297;-86
2022/05/14 01:56:29;;;;;;;9.47;7.47;;;;;;;16.72;100.00;96600.19;5024311;28;20279;-87
2022/05/14 01:58:58;;;;;;;16.17;8.33;;;;;;;16.76;100.00;96602.13;5032242;28;20208;-86
2022/05/14 02:01:28;;;;;;;7.20;6.50;;;;;;;16.77;100.00;96597.50;5023675;28;20205;-87
2022/05/14 02:04:00;;;;;;;8.17;6.50;;;;;;;16.84;100.00;96606.28;5020595;28;20203;-87
2022/05/14 02:06:29;;;;;;;7.47;6.63;;;;;;;16.87;100.00;96594.84;5039533;28;20234;-87
2022/05/14 02:08:58;;;;;;;8.17;7.27;;;;;;;16.87;100.00;96603.84;5027249;28;20225;-87
2022/05/14 02:11:25;;;;;;;8.97;7.10;;;;;;;16.87;100.00;96606.56;5023754;28;20369;-86
2022/05/14 02:14:14;;;;;;;7.70;6.90;;;;;;;16.88;100.00;96610.94;5118353;27;20570;-87
2022/05/14 02:16:41;;;;;;;10.83;6.87;;;;;;;16.86;100.00;96601.38;5118466;28;20208;-87
2022/05/14 02:19:08;;;;;;;9.97;6.47;;;;;;;16.86;100.00;96595.91;5116332;28;20312;-87
2022/05/14 02:21:36;;;;;;;10.93;7.37;;;;;;;16.76;100.00;96590.44;5110307;27;20220;-87
2022/05/14 02:24:03;;;;;;;9.77;7.20;;;;;;;16.74;100.00;96595.31;5117113;27;20200;-87
2022/05/14 02:26:30;;;;;;;11.43;7.10;;;;;;;16.77;100.00;96606.50;5114843;27;20192;-87
2022/05/14 02:28:58;;;;;;;10.00;6.77;;;;;;;16.80;100.00;96616.06;5117848;27;20199;-87
2022/05/14 02:31:27;;;;;;;7.80;7.00;;;;;;;16.75;100.00;96594.22;5112379;27;20299;-86
2022/05/14 02:33:54;;;;;;;10.27;7.10;;;;;;;16.74;100.00;96600.75;5112533;27;20287;-86
2022/05/14 02:36:21;;;;;;;11.70;7.03;;;;;;;16.63;100.00;96597.13;5117407;27;20195;-87
2022/05/14 02:38:49;;;;;;;9.13;7.20;;;;;;;16.56;100.00;96591.88;5118697;27;20200;-88
2022/05/14 02:41:16;;;;;;;10.67;7.73;;;;;;;16.55;100.00;96584.78;5114004;28;20195;-87
2022/05/14 02:43:44;;;;;;;10.03;7.30;;;;;;;16.50;100.00;96586.69;5114677;27;20203;-87
2022/05/14 02:46:12;;;;;;;12.57;7.50;;;;;;;16.44;100.00;96587.69;5109780;27;20203;-87
2022/05/14 02:48:41;;;;;;;12.77;7.70;;;;;;;16.48;100.00;96583.38;5110210;27;20201;-87
2022/05/14 02:51:10;;;;;;;9.77;7.40;;;;;;;16.49;100.00;96585.03;5111760;27;20204;-87
2022/05/14 02:56:11;;;;;;;11.03;8.23;;;;;;;16.37;100.00;96581.66;5131974;27;20593;-88
2022/05/14 03:00:42;;;;;;;8.87;7.27;;;;;;;16.43;100.00;96589.59;5136090;27;20661;-86
2022/05/14 03:03:09;;;;;;;10.13;7.30;;;;;;;16.43;100.00;96583.31;5097445;28;20204;-86
2022/05/14 03:05:36;;;;;;;12.97;7.37;;;;;;;16.48;100.00;96594.28;5091589;28;20219;-85
2022/05/14 03:08:04;;;;;;;13.77;7.53;;;;;;;16.48;100.00;96597.00;5099227;28;20312;-87
2022/05/14 03:10:32;;;;;;;14.13;7.43;;;;;;;16.49;100.00;96590.47;5101287;28;20199;-87
2022/05/14 03:12:59;;;;;;;10.37;6.93;;;;;;;16.44;100.00;96593.97;5114483;27;20187;-88
2022/05/14 03:15:27;;;;;;;10.23;8.10;;;;;;;16.39;100.00;96591.22;5102239;28;20208;-87
2022/05/14 03:17:56;;;;;;;11.20;8.70;;;;;;;16.35;100.00;96602.88;5096284;28;20232;-86
2022/05/14 03:20:23;;;;;;;9.47;8.10;;;;;;;16.31;100.00;96594.44;5094040;28;20315;-86
2022/05/14 03:22:50;;;;;;;9.53;7.80;;;;;;;16.25;100.00;96596.28;5095883;28;20201;-86
2022/05/14 03:25:17;;;;;;;23.17;9.00;;;;;;;16.24;100.00;96591.09;5092616;28;20239;-86
2022/05/14 03:27:45;;;;;;;9.27;8.27;;;;;;;16.26;100.00;96597.09;5098830;28;20203;-86
2022/05/14 03:30:13;;;;;;;9.43;7.13;;;;;;;16.28;100.00;96601.22;5110384;28;20195;-85
2022/05/14 03:32:41;;;;;;;9.43;7.83;;;;;;;16.30;100.00;96597.41;5089518;28;20203;-86
2022/05/14 03:35:10;;;;;;;11.47;7.40;;;;;;;16.23;100.00;96594.91;5097805;28;20273;-86
2022/05/14 03:37:37;;;;;;;9.33;8.10;;;;;;;16.16;100.00;96591.59;5096404;28;20204;-88
2022/05/14 03:40:07;;;;;;;10.20;7.67;;;;;;;16.10;100.00;96584.44;5090920;28;20239;-87
2022/05/14 03:42:35;;;;;;;10.27;8.23;;;;;;;16.11;100.00;96589.63;5094368;28;20211;-87
2022/05/14 03:45:03;;;;;;;9.63;8.53;;;;;;;16.07;100.00;96590.41;5094285;28;20289;-89
2022/05/14 03:47:30;;;;;;;11.20;8.10;;;;;;;16.10;100.00;96592.59;5095336;28;20271;-89
2022/05/14 03:49:58;;;;;;;9.37;7.40;;;;;;;16.12;100.00;96601.34;5097569;28;20253;-89
2022/05/14 03:52:26;;;;;;;15.57;8.43;;;;;;;16.11;100.00;96588.81;5098467;28;20208;-88
2022/05/14 03:54:53;;;;;;;8.60;7.27;;;;;;;16.19;100.00;96602.78;5099859;28;20211;-90
2022/05/14 03:57:20;;;;;;;13.87;7.47;;;;;;;16.19;100.00;96604.66;5090360;28;20255;-89
2022/05/14 03:59:47;;;;;;;13.70;7.77;;;;;;;16.14;100.00;96604.63;5089372;28;20317;-87
2022/05/14 04:02:15;;;;;;;9.57;7.57;;;;;;;16.19;100.00;96610.94;5105545;28;20278;-88
2022/05/14 04:04:43;;;;;;;10.97;7.50;;;;;;;16.26;100.00;96613.44;5093157;28;20267;-88
2022/05/14 04:07:11;;;;;;;10.40;7.30;;;;;;;16.32;100.00;96615.16;5093866;28;20204;-89
2022/05/14 04:09:40;;;;;;;10.73;7.37;;;;;;;16.36;100.00;96618.16;5092505;28;20289;-88
2022/05/14 04:12:08;;;;;;;9.87;7.47;;;;;;;16.27;100.00;96617.81;5073968;28;20201;-88
2022/05/14 04:14:36;;;;;;;8.57;7.60;;;;;;;16.20;100.00;96620.75;5082779;28;20204;-89
2022/05/14 04:17:05;;;;;;;10.13;7.80;;;;;;;16.19;100.00;96621.00;5080794;28;20232;-88
2022/05/14 04:19:32;;;;;;;10.50;7.80;;;;;;;16.19;100.00;96626.47;5085025;28;20228;-88
2022/05/14 04:21:59;;;;;;;14.00;7.93;;;;;;;16.20;100.00;96622.66;5081100;28;20220;-88
2022/05/14 04:24:27;;;;;;;12.27;8.07;;;;;;;16.24;100.00;96615.63;5081087;28;20287;-88
2022/05/14 04:26:56;;;;;;;9.57;7.27;;;;;;;16.34;100.00;96621.13;5083036;28;20205;-88
2022/05/14 04:29:23;;;;;;;14.33;7.60;;;;;;;16.36;100.00;96618.97;5083375;28;20213;-88
2022/05/14 04:31:51;;;;;;;9.27;6.93;;;;;;;16.37;100.00;96615.19;5081821;28;20201;-88
2022/05/14 04:34:18;;;;;;;7.90;7.10;;;;;;;16.40;100.00;96620.13;5078806;28;20206;-88
2022/05/14 04:36:45;;;;;;;9.43;7.67;;;;;;;16.38;100.00;96627.72;5083522;28;20209;-89
2022/05/14 04:39:13;;;;;;;9.83;7.43;;;;;;;16.25;100.00;96617.25;5088010;27;20290;-89
2022/05/14 04:44:14;;;;;;;9.20;6.77;;;;;;;16.24;100.00;96627.34;5109370;27;20567;-87
2022/05/14 04:46:41;;;;;;;9.07;7.17;;;;;;;16.28;100.00;96627.63;5090301;28;20894;-87
2022/05/14 04:49:08;;;;;;;9.07;7.30;;;;;;;16.41;100.00;96627.22;5049269;28;20210;-86
2022/05/14 04:51:36;;;;;;;17.27;7.13;;;;;;;16.40;100.00;96625.56;5046603;28;20256;-86
2022/05/14 04:54:03;;;;;;;15.07;7.20;;;;;;;16.37;100.00;96630.72;5071888;28;20229;-86
2022/05/14 04:56:30;;;;;;;8.43;6.93;;;;;;;16.35;100.00;96639.13;5056929;28;20294;-86
2022/05/14 04:58:57;;;;;;;13.13;7.67;;;;;;;16.36;100.00;96632.59;5050483;28;20214;-86
2022/05/14 05:01:26;;;;;;;11.00;7.20;;;;;;;16.48;100.00;96636.00;5053930;28;20224;-86
2022/05/14 05:03:52;;;;;;;8.10;6.27;;;;;;;16.47;100.00;96641.69;5049928;28;20229;-86
2022/05/14 05:06:23;;;;;;;10.53;7.63;;;;;;;16.40;100.00;96636.47;5071680;28;20213;-86
2022/05/14 05:08:52;;;;;;;12.27;7.50;;;;;;;16.39;100.00;96640.28;5054651;28;20218;-86
2022/05/14 05:11:20;;;;;;;8.43;6.63;;;;;;;16.45;100.00;96639.22;5051534;28;20260;-88
2022/05/14 05:13:47;;;;;;;14.43;7.53;;;;;;;16.51;100.00;96640.91;5060800;28;20209;-86
2022/05/14 05:16:15;;;;;;;39.87;11.37;;;;;;;16.51;100.00;96631.91;5052922;28;20197;-86
2022/05/14 05:18:43;;;;;;;8.77;7.17;;;;;;;16.48;100.00;96644.16;5058180;28;20201;-86
2022/05/14 05:21:10;;;;;;;10.07;7.10;;;;;;;16.42;100.00;96644.38;5052828;28;20220;-87
2022/05/14 05:23:37;;;;;;;9.47;7.27;;;;;;;16.31;100.00;96648.09;5051576;28;20234;-86
2022/05/14 05:26:05;;;;;;;17.43;6.83;;;;;;;16.29;100.00;96656.53;5054412;28;20210;-87
2022/05/14 05:28:32;;;;;;;25.40;9.47;;;;;;;16.33;100.00;96648.69;5050810;28;20213;-87
2022/05/14 05:30:59;;;;;;;12.73;7.57;;;;;;;16.40;100.00;96652.00;5049235;28;20205;-88
2022/05/14 05:33:26;;;;;;;13.87;7.90;;;;;;;16.38;100.00;96654.97;5047839;28;20228;-87
2022/05/14 05:35:55;;;;;;;8.30;6.70;;;;;;;16.45;100.00;96655.59;5050706;28;20202;-87
2022/05/14 05:38:22;;;;;;;8.87;6.90;;;;;;;16.44;100.00;96645.75;5052746;28;20299;-87
2022/05/14 05:40:50;;;;;;;10.50;6.93;;;;;;;16.44;100.00;96650.38;5052187;28;20241;-87
2022/05/14 05:43:17;;;;;;;21.03;7.87;;;;;;;16.41;100.00;96659.94;5053822;28;20339;-86
2022/05/14 05:45:48;;;;;;;8.23;6.77;;;;;;;16.51;100.00;96650.97;5070051;28;20202;-86
2022/05/14 05:48:15;;;;;;;12.63;7.43;;;;;;;16.56;100.00;96653.78;5052243;28;20229;-86
2022/05/14 05:50:44;;;;;;;14.60;6.60;;;;;;;16.68;100.00;96656.31;5054929;28;20213;-88
2022/05/14 05:53:14;;;;;;;15.73;7.63;;;;;;;16.72;100.00;96647.38;5044553;28;20198;-86
2022/05/14 05:58:26;;;;;;;18.77;8.13;;;;;;;16.88;100.00;96637.38;5045181;28;20206;-87
2022/05/14 06:00:53;;;;;;;12.73;7.37;;;;;;;16.96;100.00;96651.34;5031905;28;20245;-87
2022/05/14 06:03:21;;;;;;;11.87;7.03;;;;;;;17.01;100.00;96645.91;5037859;28;20247;-87
2022/05/14 06:05:49;;;;;;;8.80;6.90;;;;;;;17.04;100.00;96644.56;5041825;28;20274;-87
2022/05/14 06:08:19;;;;;;;9.37;6.80;;;;;;;17.01;100.00;96635.00;5042332;28;20214;-87
2022/05/14 06:10:46;;;;;;;12.33;6.93;;;;;;;16.96;100.00;96645.06;5035843;28;20253;-87
2022/05/14 06:13:14;;;;;;;8.33;6.77;;;;;;;17.02;100.00;96644.00;5034342;28;20279;-87
2022/05/14 06:15:41;;;;;;;10.13;6.70;;;;;;;17.12;100.00;96648.72;5039320;28;20198;-86
2022/05/14 06:18:09;;;;;;;10.57;6.80;;;;;;;17.22;100.00;96649.59;5048542;28;20206;-87
2022/05/14 06:20:38;;;;;;;8.97;6.60;;;;;;;17.30;100.00;96640.09;5034901;28;20360;-86
2022/05/14 06:23:06;;;;;;;18.33;7.47;;;;;;;17.34;100.00;96635.75;5034642;28;20219;-86
2022/05/14 06:25:34;;;;;;;11.10;6.73;;;;;;;17.39;100.00;96635.75;5037744;28;20228;-86
2022/05/14 06:28:02;;;;;;;11.73;6.90;;;;;;;17.42;100.00;96632.50;5036981;28;20202;-87
2022/05/14 06:30:30;;;;;;;16.53;7.83;;;;;;;17.50;100.00;96642.91;5037011;28;20203;-87
2022/05/14 06:33:02;;;;;;;9.30;6.10;;;;;;;17.55;100.00;96642.91;5031051;28;20202;-86
2022/05/14 06:35:29;;;;;;;7.03;6.33;;;;;;;17.56;100.00;96646.47;5032839;28;20296;-88
2022/05/14 06:37:57;;;;;;;6.83;6.00;;;;;;;17.58;100.00;96642.41;5042608;28;20387;-87
2022/05/14 06:40:24;;;;;;;10.43;6.60;;;;;;;17.60;100.00;96644.88;5032626;28;20202;-87
2022/05/14 06:42:53;;;;;;;8.03;6.00;;;;;;;17.68;100.00;96644.38;5034369;28;20241;-87
2022/05/14 06:45:20;;;;;;;7.00;6.30;;;;;;;17.72;100.00;96638.09;5040073;28;20201;-86
2022/05/14 06:47:48;;;;;;;8.90;6.37;;;;;;;17.76;100.00;96639.22;5035347;28;20244;-87
2022/05/14 06:50:15;;;;;;;8.97;6.50;;;;;;;17.85;100.00;96644.16;5037312;28;20237;-86
2022/05/14 06:52:45;;;;;;;17.07;7.87;;;;;;;17.82;100.00;96641.94;5028804;28;20210;-87
2022/05/14 06:55:17;;;;;;;11.67;6.70;;;;;;;17.77;100.00;96634.56;5040411;28;20210;-87
2022/05/14 06:57:44;;;;;;;8.00;7.10;;;;;;;17.84;100.00;96645.25;5034761;28;20230;-86
2022/05/14 07:00:14;;;;;;;11.00;7.00;;;;;;;17.82;100.00;96636.50;5039860;28;20232;-86
2022/05/14 07:02:43;;;;;;;9.57;7.20;;;;;;;17.83;100.00;96636.22;5033814;28;20293;-87
2022/05/14 07:07:55;;;;;;;9.83;7.43;;;;;;;17.86;100.00;96638.44;5036453;28;20217;-87
2022/05/14 07:10:22;;;;;;;10.60;7.33;;;;;;;17.92;100.00;96626.41;5037785;28;20210;-86
2022/05/14 07:12:50;;;;;;;11.50;7.83;;;;;;;18.30;100.00;96629.72;5027486;28;20222;-87
2022/05/14 07:15:19;;;;;;;11.97;7.47;;;;;;;18.70;100.00;96629.78;5036921;28;20276;-87
2022/05/14 07:17:47;;;;;;;13.50;8.10;;;;;;;19.14;100.00;96631.91;5033548;28;20205;-86
2022/05/14 07:20:14;;;;;;;11.30;7.40;;;;;;;19.62;100.00;96630.38;5036555;28;20222;-86
2022/05/14 07:22:41;;;;;;;10.30;7.22;;;;;;;20.10;100.00;96622.44;5034641;28;20237;-86
2022/05/14 07:25:09;;;;;;;14.90;7.72;;;;;;;20.40;100.00;96622.28;5039815;28;20295;-87
2022/05/14 07:27:36;;;;;;;9.90;7.93;;;;;;;20.57;100.00;96610.88;5038191;28;20230;-87
2022/05/14 07:30:03;;;;;;;12.60;7.97;;;;;;;20.74;100.00;96611.28;5040587;28;20206;-87
2022/05/14 07:32:32;;;;;;;10.20;7.68;;;;;;;21.06;98.82;96607.94;5057403;28;20240;-86
2022/05/14 07:50:36;;;;;;;12.48;7.55;;;;;;;21.77;91.08;96599.72;5133157;27;20573;-84
2022/05/14 07:53:07;;;;;;;9.98;8.10;;;;;;;21.96;91.15;96591.47;5102775;28;20257;-89
2022/05/14 07:55:36;;;;;;;10.05;8.02;;;;;;;22.10;88.31;96589.66;5097812;28;20212;-89
2022/05/14 07:58:04;;;;;;;14.20;7.00;;;;;;;21.87;89.89;96585.81;5103876;28;20204;-91
2022/05/14 08:00:32;;;;;;;8.88;7.35;;;;;;;21.83;90.84;96590.28;5101248;28;20211;-91
2022/05/14 08:02:59;;;;;;;9.90;7.55;;;;;;;22.06;90.43;96585.84;5101447;27;20207;-92
2022/05/14 08:05:27;;;;;;;12.10;8.07;;;;;;;22.36;87.80;96575.50;5100804;28;20260;-93
2022/05/14 08:07:57;;;;;;;10.55;7.40;;;;;;;22.53;86.77;96576.59;5099029;28;20281;-92
2022/05/14 08:10:39;;;;;;;10.60;7.25;;;;;;;22.76;85.59;96574.03;5113772;27;20281;-92
2022/05/14 08:13:07;;;;;;;12.30;8.15;;;;;;;22.67;86.51;96567.53;5103544;28;20207;-93
2022/05/14 08:15:34;;;;;;;11.32;8.05;;;;;;;22.83;85.18;96569.75;5094214;27;20207;-91
2022/05/14 08:18:05;;;;;;;10.85;7.70;;;;;;;23.04;84.04;96570.22;5116578;27;20211;-92
2022/05/14 08:20:33;;;;;;;10.13;8.05;;;;;;;22.77;85.69;96565.47;5113475;27;20235;-92
2022/05/14 08:26:08;;;;;;;11.35;8.43;;;;;;;22.91;87.36;96574.56;5082833;28;20346;-93
2022/05/14 08:28:44;;;;;;;11.45;8.40;;;;;;;23.03;86.49;96568.56;5098216;28;20224;-91
2022/05/14 08:31:11;;;;;;;10.82;8.77;;;;;;;23.09;85.71;96572.84;5077043;28;20227;-92
2022/05/14 08:33:41;;;;;;;13.35;8.90;;;;;;;22.78;85.98;96558.03;5079846;28;20204;-91
2022/05/14 08:36:11;;;;;;;14.23;8.70;;;;;;;22.95;84.20;96561.81;5078625;28;20262;-92
2022/05/14 08:38:40;;;;;;;12.77;8.88;;;;;;;22.89;84.40;96562.19;5078252;28;20196;-91
2022/05/14 08:41:10;;;;;;;15.88;9.32;;;;;;;22.88;85.84;96555.09;5085001;28;20288;-91
2022/05/14 08:43:42;;;;;;;10.13;8.70;;;;;;;23.06;86.43;96556.91;5073856;28;20205;-92
2022/05/14 08:46:14;;;;;;;11.27;8.50;;;;;;;23.07;84.39;96558.56;5081840;28;20216;-93
2022/05/14 08:48:42;;;;;;;9.40;8.32;;;;;;;23.32;83.12;96552.53;5080910;28;20257;-93
2022/05/14 08:51:18;;;;;;;11.95;8.88;;;;;;;22.93;83.40;96552.22;5075468;28;20201;-92
2022/05/14 08:54:08;;;;;;;10.80;7.97;;;;;;;22.73;83.68;96558.06;5093825;28;20219;-92
2022/05/14 08:56:53;;;;;;;11.80;8.48;;;;;;;22.23;87.04;96550.38;5082777;28;20229;-92
2022/05/14 08:59:47;;;;;;;10.00;8.30;;;;;;;21.98;87.91;96547.22;5086519;28;20205;-92
2022/05/14 09:02:18;;;;;;;14.32;9.15;;;;;;;21.70;88.63;96552.50;5077740;28;20224;-92
2022/05/14 09:04:49;;;;;;;13.32;8.52;;;;;;;21.71;89.11;96553.34;5065890;28;20236;-91
2022/05/14 09:07:22;;;;;;;12.05;8.77;;;;;;;21.67;90.00;96555.88;5061146;28;20228;-90
2022/05/14 09:09:56;;;;;;;12.77;9.95;;;;;;;21.47;91.40;96547.88;5065015;28;20224;-92
2022/05/14 09:12:26;;;;;;;11.73;8.57;;;;;;;21.42;91.75;96558.97;5063871;28;20207;-92
2022/05/14 09:14:56;;;;;;;11.05;9.82;;;;;;;21.31;92.38;96554.69;5067662;28;20201;-91
2022/05/14 09:17:28;;;;;;;12.88;9.10;;;;;;;21.29;92.93;96549.50;5071534;28;20234;-94
2022/05/14 09:20:00;;;;;;;10.52;9.43;;;;;;;21.26;91.17;96563.81;5066667;28;20205;-92
2022/05/14 09:22:33;;;;;;;10.48;9.07;;;;;;;21.30;90.78;96545.63;5062850;28;20268;-91
2022/05/14 09:25:14;;;;;;;10.43;8.63;;;;;;;21.68;91.00;96545.69;5065809;28;20659;-91
2022/05/14 09:27:44;;;;;;;9.18;8.23;;;;;;;21.76;88.39;96539.53;5061672;28;20212;-95
2022/05/14 09:30:22;;;;;;;11.80;8.68;;;;;;;22.06;88.00;96539.09;5068049;28;20229;-91
2022/05/14 09:32:50;;;;;;;11.77;8.52;;;;;;;22.41;87.29;96534.97;5065737;28;20212;-92
2022/05/14 09:35:32;;;;;;;14.43;8.18;;;;;;;22.43;85.71;96537.41;5069142;28;20205;-93
2022/05/14 09:38:23;;;;;;;13.38;7.72;;;;;;;22.60;84.50;96532.16;5062554;28;20202;-93
2022/05/14 09:41:08;;;;;;;11.85;8.00;;;;;;;22.95;83.04;96538.97;5061979;28;20217;-91
2022/05/14 09:43:38;;;;;;;10.10;8.02;;;;;;;22.94;80.93;96548.34;5062386;28;20197;-88
2022/05/14 09:46:10;;;;;;;9.50;7.45;;;;;;;23.21;81.30;96534.59;5069542;28;20212;-89
2022/05/14 09:48:47;;;;;;;10.48;7.90;;;;;;;23.33;78.49;96532.13;5081304;28;20237;-88
2022/05/14 09:51:27;;;;;;;8.95;8.10;;;;;;;23.22;79.44;96533.47;5063291;28;20228;-89
2022/05/14 09:53:55;;;;;;;10.70;6.43;;;;;;;23.49;77.70;96534.59;5082777;28;20223;-88
2022/05/14 09:57:04;;;;;;;12.38;7.10;;;;;;;23.82;76.61;96525.03;5059216;28;20300;-89
2022/05/14 09:59:55;;;;;;;9.23;7.07;;;;;;;23.90;76.53;96513.28;4995603;28;20242;-91
2022/05/14 10:02:32;;;;;;;9.98;7.45;;;;;;;24.07;73.04;96526.41;5058892;28;20201;-91
2022/05/14 10:05:10;;;;;;;10.15;7.38;;;;;;;24.19;74.01;96525.84;5067337;28;20219;-91
2022/05/14 10:07:44;;;;;;;10.05;6.85;;;;;;;24.24;73.86;96526.59;5070385;28;20208;-90
2022/05/14 10:10:22;;;;;;;9.68;7.60;;;;;;;24.35;73.08;96533.47;5070203;28;20244;-90
2022/05/14 10:13:02;;;;;;;9.80;7.28;;;;;;;24.23;74.34;96529.66;5052718;28;20209;-90
2022/05/14 10:15:38;;;;;;;8.82;7.20;;;;;;;24.29;73.68;96529.19;5068470;28;20208;-89
2022/05/14 10:18:17;;;;;;;12.45;8.00;;;;;;;24.43;73.28;96532.69;5062360;28;20204;-92
2022/05/14 10:20:56;;;;;;;8.25;7.43;;;;;;;24.66;71.27;96522.47;5062298;28;20244;-91
2022/05/14 10:27:15;;;;;;;9.00;7.53;;;;;;;25.24;69.65;96525.06;5097504;28;20221;-87
2022/05/14 10:29:55;;;;;;;9.38;7.18;;;;;;;25.20;68.99;96520.47;5096405;28;20203;-88
2022/05/14 10:32:26;;;;;;;9.93;7.68;;;;;;;24.85;69.95;96522.22;5116103;27;20287;-88
2022/05/14 10:35:00;;;;;;;10.90;6.70;;;;;;;25.00;71.39;96526.56;5097156;28;20232;-88
2022/05/14 10:37:31;;;;;;;10.38;7.35;;;;;;;25.01;69.89;96522.69;5090490;28;20212;-87
2022/05/14 10:40:10;;;;;;;8.70;7.78;;;;;;;24.93;71.35;96517.91;5095936;28;20235;-88
2022/05/14 10:42:48;;;;;;;9.40;7.30;;;;;;;24.84;70.98;96517.84;5114592;27;20216;-88
2022/05/14 10:45:18;;;;;;;11.27;7.75;;;;;;;24.46;69.26;96509.19;5092589;28;20312;-86
2022/05/14 10:50:22;;;;;;;10.57;7.35;;;;;;;24.82;69.68;96509.06;5115377;27;20557;-85
2022/05/14 10:52:52;;;;;;;8.88;6.28;;;;;;;24.88;69.33;96502.28;5100027;27;20299;-86
2022/05/14 10:55:24;;;;;;;9.52;7.00;;;;;;;24.92;69.80;96513.53;5097218;28;20226;-86
2022/05/14 10:57:57;;;;;;;9.25;6.63;;;;;;;24.99;68.02;96497.31;5128054;27;20192;-85
2022/05/14 11:00:43;;;;;;;9.00;6.57;;;;;;;25.08;67.18;96495.41;5108503;28;20223;-86
2022/05/14 11:03:23;;;;;;;8.35;6.50;;;;;;;24.97;66.27;96497.63;5105814;28;20299;-85
2022/05/14 11:05:55;;;;;;;8.63;6.40;;;;;;;24.89;67.22;96493.69;5129541;27;20199;-86
2022/05/14 11:08:31;;;;;;;8.63;6.57;;;;;;;24.97;67.76;96502.34;5105586;28;20224;-85
2022/05/14 11:11:04;;;;;;;13.05;6.88;;;;;;;24.91;67.21;96495.31;5088999;28;20201;-86
2022/05/14 11:13:34;;;;;;;10.48;6.82;;;;;;;24.86;67.70;96487.97;5094997;28;20215;-85
2022/05/14 11:17:33;;;;;;;9.98;6.90;;;;;;;25.13;67.37;96484.19;5040034;27;20568;-86
2022/05/14 11:20:14;;;;;;;7.18;6.32;;;;;;;25.09;65.88;96480.47;5011807;28;20249;-86
2022/05/14 11:22:44;;;;;;;9.40;6.18;;;;;;;25.14;65.55;96494.94;5016441;28;20215;-87
2022/05/14 11:25:14;;;;;;;8.48;6.97;;;;;;;25.10;66.10;96485.66;5027471;28;20229;-87
2022/05/14 11:27:42;;;;;;;10.05;6.72;;;;;;;25.31;66.94;96485.06;5011808;28;20300;-87
2022/05/14 11:30:12;;;;;;;7.15;6.22;;;;;;;25.24;65.35;96483.59;5009445;28;20218;-86
2022/05/14 11:32:48;;;;;;;8.38;6.38;;;;;;;25.19;66.07;96483.72;5021444;28;20203;-87
2022/05/14 11:35:16;;;;;;;8.60;6.13;;;;;;;25.32;66.22;96486.69;5011965;28;20392;-87
2022/05/14 11:37:45;;;;;;;12.13;6.85;;;;;;;25.43;66.27;96490.81;5006785;28;20269;-87
2022/05/14 11:40:26;;;;;;;9.18;6.07;;;;;;;25.74;66.70;96477.69;5018985;28;20224;-86
2022/05/14 11:43:08;;;;;;;10.32;6.18;;;;;;;25.80;63.61;96478.34;5020970;28;20207;-87
2022/05/14 11:45:37;;;;;;;9.10;6.13;;;;;;;25.85;64.92;96469.91;5020625;28;20461;-87
2022/05/14 11:48:09;;;;;;;7.50;6.13;;;;;;;25.84;63.19;96473.78;5010098;28;20204;-86
2022/05/14 11:50:43;;;;;;;8.45;6.07;;;;;;;25.97;62.95;96464.50;5013540;28;20218;-86
2022/05/14 11:53:25;;;;;;;9.15;5.97;;;;;;;25.90;63.73;96469.72;5023533;28;20257;-87
2022/05/14 11:55:55;;;;;;;10.30;5.85;;;;;;;26.09;62.90;96464.69;5026280;28;20226;-87
2022/05/14 11:58:29;;;;;;;11.40;6.25;;;;;;;26.13;61.84;96453.75;5006066;28;20398;-87
2022/05/14 12:00:58;;;;;;;8.02;5.97;;;;;;;26.12;62.25;96463.19;5014559;28;20234;-87
2022/05/14 12:03:32;;;;;;;10.20;6.38;;;;;;;26.47;60.66;96458.44;5012625;28;20290;-86
2022/05/14 12:06:08;;;;;;;12.02;5.75;;;;;;;26.40;59.77;96450.66;5006856;28;20294;-86
2022/05/14 12:09:02;;;;;;;9.45;5.40;;;;;;;26.52;60.00;96456.34;5015946;28;20211;-87
2022/05/14 12:11:35;;;;;;;6.47;5.45;;;;;;;26.56;58.80;96450.94;5015304;28;20212;-87
2022/05/14 12:14:09;;;;;;;7.63;6.00;;;;;;;26.80;58.33;96444.81;5004939;28;20207;-86
2022/05/14 12:16:39;;;;;;;7.05;5.20;;;;;;;26.70;57.29;96440.47;5011922;28;20242;-86
2022/05/14 12:19:15;;;;;;;7.47;5.28;;;;;;;26.60;57.44;96430.56;5038262;28;20227;-85
2022/05/14 12:21:44;;;;;;;6.30;5.10;;;;;;;26.40;57.21;96434.03;5010389;28;20227;-86
2022/05/14 12:24:19;;;;;;;6.32;5.43;;;;;;;26.40;56.81;96427.69;5012114;28;20226;-86